sensor_id;sensor_type;location;lat;lon;timestamp;pressure;altitude;pressure_sealevel;temperature;humidity
50550;BME280;36505;52.512;13.460;2022-11-24T00:00:46;100283.72;;;0.47;100.00
50550;BME280;36505;52.512;13.460;2022-11-24T00:03:12;100281.84;;;0.48;100.00
50550;BME280;36505;52.512;13.460;2022-11-24T00:05:37;100280.44;;;0.52;100.00
50550;BME280;36505;52.512;13.460;2022-11-24T00:08:03;100290.19;;;0.53;100.00
50550;BME280;36505;52.512;13.460;2022-11-24T00:10:29;100284.22;;;0.57;100.00
50550;BME280;36505;52.512;13.460;2022-11-24T00:12:54;100289.81;;;0.56;100.00
50550;BME280;36505;52.512;13.460;2022-11-24T00:15:20;100285.91;;;0.58;100.00
50550;BME280;36505;52.512;13.460;2022-11-24T00:17:45;100287.31;;;0.54;100.00
50550;BME280;36505;52.512;13.460;2022-11-24T00:20:10;100279.84;;;0.56;100.00
50550;BME280;36505;52.512;13.460;2022-11-24T00:22:36;100285.53;;;0.61;100.00
50550;BME280;36505;52.512;13.460;2022-11-24T00:25:01;100288.00;;;0.63;100.00
50550;BME280;36505;52.512;13.460;2022-11-24T00:27:27;100282.25;;;0.66;100.00
50550;BME280;36505;52.512;13.460;2022-11-24T00:29:52;100298.03;;;0.69;100.00
50550;BME280;36505;52.512;13.460;2022-11-24T00:32:17;100288.91;;;0.70;100.00
50550;BME280;36505;52.512;13.460;2022-11-24T00:34:43;100291.59;;;0.70;100.00
50550;BME280;36505;52.512;13.460;2022-11-24T00:37:08;100297.28;;;0.75;100.00
50550;BME280;36505;52.512;13.460;2022-11-24T00:39:34;100288.91;;;0.70;100.00
50550;BME280;36505;52.512;13.460;2022-11-24T00:41:59;100291.69;;;0.76;100.00
50550;BME280;36505;52.512;13.460;2022-11-24T00:44:24;100290.84;;;0.76;100.00
50550;BME280;36505;52.512;13.460;2022-11-24T00:46:50;100290.47;;;0.79;100.00
50550;BME280;36505;52.512;13.460;2022-11-24T00:49:15;100272.19;;;0.74;100.00
50550;BME280;36505;52.512;13.460;2022-11-24T00:51:40;100280.53;;;0.79;100.00
50550;BME280;36505;52.512;13.460;2022-11-24T00:54:06;100280.72;;;0.78;100.00
50550;BME280;36505;52.512;13.460;2022-11-24T00:56:31;100288.03;;;0.84;100.00
50550;BME280;36505;52.512;13.460;2022-11-24T00:58:57;100285.16;;;0.86;100.00
50550;BME280;36505;52.512;13.460;2022-11-24T01:01:25;100280.97;;;0.83;100.00
50550;BME280;36505;52.512;13.460;2022-11-24T01:03:51;100278.06;;;0.85;100.00
50550;BME280;36505;52.512;13.460;2022-11-24T01:06:21;100280.06;;;0.76;100.00
50550;BME280;36505;52.512;13.460;2022-11-24T01:08:46;100283.81;;;0.75;100.00
50550;BME280;36505;52.512;13.460;2022-11-24T01:11:13;100286.22;;;0.70;100.00
50550;BME280;36505;52.512;13.460;2022-11-24T01:13:40;100289.31;;;0.67;100.00
50550;BME280;36505;52.512;13.460;2022-11-24T01:16:15;100289.03;;;0.62;100.00
50550;BME280;36505;52.512;13.460;2022-11-24T01:18:41;100294.88;;;0.65;100.00
50550;BME280;36505;52.512;13.460;2022-11-24T01:21:07;100295.91;;;0.64;100.00
50550;BME280;36505;52.512;13.460;2022-11-24T01:23:32;100305.47;;;0.67;100.00
50550;BME280;36505;52.512;13.460;2022-11-24T01:25:57;100306.75;;;0.71;100.00
50550;BME280;36505;52.512;13.460;2022-11-24T01:28:23;100292.25;;;0.72;100.00
50550;BME280;36505;52.512;13.460;2022-11-24T01:30:58;100308.13;;;0.82;100.00
50550;BME280;36505;52.512;13.460;2022-11-24T01:33:24;100313.13;;;0.85;100.00
50550;BME280;36505;52.512;13.460;2022-11-24T01:35:50;100311.91;;;0.87;100.00
50550;BME280;36505;52.512;13.460;2022-11-24T01:38:15;100308.56;;;0.85;100.00
50550;BME280;36505;52.512;13.460;2022-11-24T01:40:41;100305.44;;;0.82;100.00
50550;BME280;36505;52.512;13.460;2022-11-24T01:43:24;100308.38;;;0.87;100.00
50550;BME280;36505;52.512;13.460;2022-11-24T01:45:50;100301.13;;;0.87;100.00
50550;BME280;36505;52.512;13.460;2022-11-24T01:50:46;100291.13;;;0.81;100.00
50550;BME280;36505;52.512;13.460;2022-11-24T01:53:14;100292.16;;;0.80;100.00
50550;BME280;36505;52.512;13.460;2022-11-24T01:55:40;100292.63;;;0.69;100.00
50550;BME280;36505;52.512;13.460;2022-11-24T01:58:17;100283.38;;;0.57;100.00
50550;BME280;36505;52.512;13.460;2022-11-24T02:00:45;100295.00;;;0.57;100.00
50550;BME280;36505;52.512;13.460;2022-11-24T02:03:13;100304.94;;;0.57;100.00
50550;BME280;36505;52.512;13.460;2022-11-24T02:05:50;100314.97;;;0.63;100.00
50550;BME280;36505;52.512;13.460;2022-11-24T02:09:10;100326.28;;;0.73;100.00
50550;BME280;36505;52.512;13.460;2022-11-24T02:11:09;100332.56;;;0.80;100.00
50550;BME280;36505;52.512;13.460;2022-11-24T02:13:36;100324.22;;;0.75;100.00
50550;BME280;36505;52.512;13.460;2022-11-24T02:16:05;100328.19;;;0.79;100.00
50550;BME280;36505;52.512;13.460;2022-11-24T02:18:31;100334.63;;;0.78;100.00
50550;BME280;36505;52.512;13.460;2022-11-24T02:20:58;100336.72;;;0.83;100.00
50550;BME280;36505;52.512;13.460;2022-11-24T02:28:31;100329.47;;;0.83;100.00
50550;BME280;36505;52.512;13.460;2022-11-24T02:30:58;100329.22;;;0.78;100.00
50550;BME280;36505;52.512;13.460;2022-11-24T02:33:25;100334.44;;;0.79;100.00
50550;BME280;36505;52.512;13.460;2022-11-24T02:35:51;100327.19;;;0.80;100.00
50550;BME280;36505;52.512;13.460;2022-11-24T02:38:17;100332.38;;;0.82;100.00
50550;BME280;36505;52.512;13.460;2022-11-24T02:40:47;100340.06;;;0.85;100.00
50550;BME280;36505;52.512;13.460;2022-11-24T02:43:16;100338.22;;;0.85;100.00
50550;BME280;36505;52.512;13.460;2022-11-24T02:45:43;100346.31;;;0.85;100.00
50550;BME280;36505;52.512;13.460;2022-11-24T02:48:09;100339.88;;;0.86;100.00
50550;BME280;36505;52.512;13.460;2022-11-24T02:50:34;100339.63;;;0.81;100.00
50550;BME280;36505;52.512;13.460;2022-11-24T02:53:00;100343.97;;;0.82;100.00
50550;BME280;36505;52.512;13.460;2022-11-24T02:55:25;100337.97;;;0.80;100.00
50550;BME280;36505;52.512;13.460;2022-11-24T02:57:50;100336.72;;;0.83;100.00
50550;BME280;36505;52.512;13.460;2022-11-24T03:00:16;100344.38;;;0.79;100.00
50550;BME280;36505;52.512;13.460;2022-11-24T03:02:42;100344.56;;;0.77;100.00
50550;BME280;36505;52.512;13.460;2022-11-24T03:05:08;100321.31;;;0.76;100.00
50550;BME280;36505;52.512;13.460;2022-11-24T03:07:33;100337.31;;;0.78;100.00
50550;BME280;36505;52.512;13.460;2022-11-24T03:09:58;100340.84;;;0.78;100.00
50550;BME280;36505;52.512;13.460;2022-11-24T03:12:24;100338.88;;;0.87;100.00
50550;BME280;36505;52.512;13.460;2022-11-24T03:14:50;100332.16;;;0.83;100.00
50550;BME280;36505;52.512;13.460;2022-11-24T03:17:15;100325.94;;;0.83;100.00
50550;BME280;36505;52.512;13.460;2022-11-24T03:19:41;100329.22;;;0.78;100.00
50550;BME280;36505;52.512;13.460;2022-11-24T03:22:06;100326.28;;;0.73;100.00
50550;BME280;36505;52.512;13.460;2022-11-24T03:24:32;100335.75;;;0.69;100.00
50550;BME280;36505;52.512;13.460;2022-11-24T03:26:57;100340.63;;;0.59;100.00
50550;BME280;36505;52.512;13.460;2022-11-24T03:29:22;100343.56;;;0.64;100.00
50550;BME280;36505;52.512;13.460;2022-11-24T03:31:48;100345.25;;;0.65;100.00
50550;BME280;36505;52.512;13.460;2022-11-24T03:34:13;100342.66;;;0.57;100.00
50550;BME280;36505;52.512;13.460;2022-11-24T03:36:39;100345.28;;;0.50;100.00
50550;BME280;36505;52.512;13.460;2022-11-24T03:39:04;100339.06;;;0.50;100.00
50550;BME280;36505;52.512;13.460;2022-11-24T03:41:30;100353.34;;;0.50;100.00
50550;BME280;36505;52.512;13.460;2022-11-24T03:43:55;100363.28;;;0.50;100.00
50550;BME280;36505;52.512;13.460;2022-11-24T03:46:21;100361.25;;;0.52;100.00
50550;BME280;36505;52.512;13.460;2022-11-24T03:48:46;100359.75;;;0.49;100.00
50550;BME280;36505;52.512;13.460;2022-11-24T03:51:11;100368.16;;;0.54;100.00
50550;BME280;36505;52.512;13.460;2022-11-24T03:53:37;100369.34;;;0.52;100.00
50550;BME280;36505;52.512;13.460;2022-11-24T03:56:02;100369.69;;;0.63;100.00
50550;BME280;36505;52.512;13.460;2022-11-24T03:58:28;100370.53;;;0.64;100.00
50550;BME280;36505;52.512;13.460;2022-11-24T04:00:54;100373.78;;;0.59;100.00
50550;BME280;36505;52.512;13.460;2022-11-24T04:03:20;100374.06;;;0.64;100.00
50550;BME280;36505;52.512;13.460;2022-11-24T04:05:46;100361.53;;;0.57;100.00
50550;BME280;36505;52.512;13.460;2022-11-24T04:08:12;100369.88;;;0.62;100.00
50550;BME280;36505;52.512;13.460;2022-11-24T04:10:38;100370.53;;;0.64;100.00
50550;BME280;36505;52.512;13.460;2022-11-24T04:13:09;100376.38;;;0.67;100.00
50550;BME280;36505;52.512;13.460;2022-11-24T04:15:37;100370.69;;;0.62;100.00
50550;BME280;36505;52.512;13.460;2022-11-24T04:18:04;100383.41;;;0.68;100.00
50550;BME280;36505;52.512;13.460;2022-11-24T04:20:29;100393.00;;;0.71;100.00
50550;BME280;36505;52.512;13.460;2022-11-24T04:22:54;100381.31;;;0.64;100.00
50550;BME280;36505;52.512;13.460;2022-11-24T04:25:20;100382.31;;;0.63;100.00
50550;BME280;36505;52.512;13.460;2022-11-24T04:27:49;100387.09;;;0.61;100.00
50550;BME280;36505;52.512;13.460;2022-11-24T04:30:16;100375.47;;;0.60;100.00
50550;BME280;36505;52.512;13.460;2022-11-24T04:32:41;100381.13;;;0.65;100.00
50550;BME280;36505;52.512;13.460;2022-11-24T04:35:07;100382.41;;;0.69;100.00
50550;BME280;36505;52.512;13.460;2022-11-24T04:37:33;100380.09;;;0.66;100.00
50550;BME280;36505;52.512;13.460;2022-11-24T04:39:58;100385.84;;;0.63;100.00
50550;BME280;36505;52.512;13.460;2022-11-24T04:42:23;100376.78;;;0.50;100.00
50550;BME280;36505;52.512;13.460;2022-11-24T04:44:49;100376.59;;;0.51;100.00
50550;BME280;36505;52.512;13.460;2022-11-24T04:47:16;100378.53;;;0.57;100.00
50550;BME280;36505;52.512;13.460;2022-11-24T04:49:42;100381.22;;;0.57;100.00
50550;BME280;36505;52.512;13.460;2022-11-24T04:52:07;100383.66;;;0.37;100.00
50550;BME280;36505;52.512;13.460;2022-11-24T04:54:33;100400.47;;;0.39;100.00
50550;BME280;36505;52.512;13.460;2022-11-24T04:56:58;100408.56;;;0.39;100.00
50550;BME280;36505;52.512;13.460;2022-11-24T04:59:24;100422.38;;;0.36;100.00
50550;BME280;36505;52.512;13.460;2022-11-24T05:01:49;100417.75;;;0.45;100.00
50550;BME280;36505;52.512;13.460;2022-11-24T05:04:15;100424.41;;;0.49;100.00
50550;BME280;36505;52.512;13.460;2022-11-24T05:06:40;100412.25;;;0.53;100.00
50550;BME280;36505;52.512;13.460;2022-11-24T05:09:07;100425.44;;;0.63;100.00
50550;BME280;36505;52.512;13.460;2022-11-24T05:11:33;100437.78;;;0.72;100.00
50550;BME280;36505;52.512;13.460;2022-11-24T05:13:59;100439.28;;;0.74;100.00
50550;BME280;36505;52.512;13.460;2022-11-24T05:16:25;100433.41;;;0.71;100.00
50550;BME280;36505;52.512;13.460;2022-11-24T05:18:50;100444.47;;;0.76;100.00
50550;BME280;36505;52.512;13.460;2022-11-24T05:21:16;100440.56;;;0.78;100.00
50550;BME280;36505;52.512;13.460;2022-11-24T05:23:41;100435.81;;;0.81;100.00
50550;BME280;36505;52.512;13.460;2022-11-24T05:26:06;100443.19;;;0.72;100.00
50550;BME280;36505;52.512;13.460;2022-11-24T05:28:32;100433.88;;;0.74;100.00
50550;BME280;36505;52.512;13.460;2022-11-24T05:30:59;100445.88;;;0.72;100.00
50550;BME280;36505;52.512;13.460;2022-11-24T05:33:24;100454.31;;;0.69;100.00
50550;BME280;36505;52.512;13.460;2022-11-24T05:35:53;100459.53;;;0.70;100.00
50550;BME280;36505;52.512;13.460;2022-11-24T05:38:18;100458.69;;;0.70;100.00
50550;BME280;36505;52.512;13.460;2022-11-24T05:40:45;100449.69;;;0.63;100.00
50550;BME280;36505;52.512;13.460;2022-11-24T05:43:12;100453.13;;;0.57;100.00
50550;BME280;36505;52.512;13.460;2022-11-24T05:45:38;100465.47;;;0.66;100.00
50550;BME280;36505;52.512;13.460;2022-11-24T05:48:05;100471.13;;;0.71;100.00
50550;BME280;36505;52.512;13.460;2022-11-24T05:50:31;100464.91;;;0.70;100.00
50550;BME280;36505;52.512;13.460;2022-11-24T05:53:01;100461.56;;;0.68;100.00
50550;BME280;36505;52.512;13.460;2022-11-24T05:55:26;100470.59;;;0.61;100.00
50550;BME280;36505;52.512;13.460;2022-11-24T05:57:57;100468.09;;;0.59;100.00
50550;BME280;36505;52.512;13.460;2022-11-24T06:00:22;100468.94;;;0.60;100.00
50550;BME280;36505;52.512;13.460;2022-11-24T06:02:48;100467.91;;;0.61;100.00
50550;BME280;36505;52.512;13.460;2022-11-24T06:05:13;100468.28;;;0.58;100.00
50550;BME280;36505;52.512;13.460;2022-11-24T06:07:38;100483.16;;;0.54;100.00
50550;BME280;36505;52.512;13.460;2022-11-24T06:10:04;100478.78;;;0.53;100.00
50550;BME280;36505;52.512;13.460;2022-11-24T06:12:29;100478.59;;;0.54;100.00
50550;BME280;36505;52.512;13.460;2022-11-24T06:14:55;100486.38;;;0.49;100.00
50550;BME280;36505;52.512;13.460;2022-11-24T06:17:20;100484.25;;;0.45;100.00
50550;BME280;36505;52.512;13.460;2022-11-24T06:19:46;100487.97;;;0.44;100.00
50550;BME280;36505;52.512;13.460;2022-11-24T06:22:14;100490.75;;;0.35;100.00
50550;BME280;36505;52.512;13.460;2022-11-24T06:24:39;100502.00;;;0.39;100.00
50550;BME280;36505;52.512;13.460;2022-11-24T06:27:05;100509.41;;;0.37;100.00
50550;BME280;36505;52.512;13.460;2022-11-24T06:29:30;100496.66;;;0.16;100.00
50550;BME280;36505;52.512;13.460;2022-11-24T06:31:56;100511.72;;;0.25;100.00
50550;BME280;36505;52.512;13.460;2022-11-24T06:34:21;100516.72;;;0.28;100.00
50550;BME280;36505;52.512;13.460;2022-11-24T06:36:47;100511.56;;;0.27;100.00
50550;BME280;36505;52.512;13.460;2022-11-24T06:39:12;100513.41;;;0.26;100.00
50550;BME280;36505;52.512;13.460;2022-11-24T06:41:37;100522.22;;;0.20;100.00
50550;BME280;36505;52.512;13.460;2022-11-24T06:44:03;100517.28;;;0.24;100.00
50550;BME280;36505;52.512;13.460;2022-11-24T06:46:29;100521.75;;;0.31;100.00
50550;BME280;36505;52.512;13.460;2022-11-24T06:48:54;100521.94;;;0.30;100.00
50550;BME280;36505;52.512;13.460;2022-11-24T06:51:19;100526.78;;;0.34;100.00
50550;BME280;36505;52.512;13.460;2022-11-24T06:53:45;100523.53;;;0.39;100.00
50550;BME280;36505;52.512;13.460;2022-11-24T06:56:13;100528.94;;;0.39;100.00
50550;BME280;36505;52.512;13.460;2022-11-24T06:58:43;100528.00;;;0.47;100.00
50550;BME280;36505;52.512;13.460;2022-11-24T07:01:13;100529.78;;;0.39;100.00
50550;BME280;36505;52.512;13.460;2022-11-24T07:03:38;100524.47;;;0.46;100.00
50550;BME280;36505;52.512;13.460;2022-11-24T07:06:04;100525.84;;;0.42;100.00
50550;BME280;36505;52.512;13.460;2022-11-24T07:08:29;100534.41;;;0.46;100.00
50550;BME280;36505;52.512;13.460;2022-11-24T07:10:55;100530.22;;;0.43;100.00
50550;BME280;36505;52.512;13.460;2022-11-24T07:13:20;100538.31;;;0.43;100.00
50550;BME280;36505;52.512;13.460;2022-11-24T07:15:46;100530.13;;;0.36;100.00
50550;BME280;36505;52.512;13.460;2022-11-24T07:18:12;100534.66;;;0.36;100.00
50550;BME280;36505;52.512;13.460;2022-11-24T07:20:37;100536.06;;;0.32;100.00
50550;BME280;36505;52.512;13.460;2022-11-24T07:23:02;100549.53;;;0.32;100.00
50550;BME280;36505;52.512;13.460;2022-11-24T07:25:28;100546.19;;;0.30;100.00
50550;BME280;36505;52.512;13.460;2022-11-24T07:27:59;100546.66;;;0.33;100.00
50550;BME280;36505;52.512;13.460;2022-11-24T07:30:26;100548.97;;;0.36;100.00
50550;BME280;36505;52.512;13.460;2022-11-24T07:32:58;100547.72;;;0.47;100.00
50550;BME280;36505;52.512;13.460;2022-11-24T07:35:23;100540.81;;;0.45;100.00
50550;BME280;36505;52.512;13.460;2022-11-24T07:37:49;100551.88;;;0.50;100.00
50550;BME280;36505;52.512;13.460;2022-11-24T07:40:14;100557.19;;;0.58;100.00
50550;BME280;36505;52.512;13.460;2022-11-24T07:42:40;100571.59;;;0.65;100.00
50550;BME280;36505;52.512;13.460;2022-11-24T07:45:06;100562.78;;;0.71;100.00
50550;BME280;36505;52.512;13.460;2022-11-24T07:47:31;100560.06;;;0.71;100.00
50550;BME280;36505;52.512;13.460;2022-11-24T07:49:56;100573.81;;;0.76;100.00
50550;BME280;36505;52.512;13.460;2022-11-24T07:52:22;100578.84;;;0.79;100.00
50550;BME280;36505;52.512;13.460;2022-11-24T07:54:50;100570.94;;;0.77;100.00
50550;BME280;36505;52.512;13.460;2022-11-24T07:57:16;100574.03;;;0.74;100.00
50550;BME280;36505;52.512;13.460;2022-11-24T07:59:41;100580.53;;;0.80;100.00
50550;BME280;36505;52.512;13.460;2022-11-24T08:02:09;100574.56;;;0.85;100.00
50550;BME280;36505;52.512;13.460;2022-11-24T08:04:37;100582.50;;;0.86;100.00
50550;BME280;36505;52.512;13.460;2022-11-24T08:07:03;100579.22;;;0.91;100.00
50550;BME280;36505;52.512;13.460;2022-11-24T08:09:28;100569.94;;;0.93;100.00
50550;BME280;36505;52.512;13.460;2022-11-24T08:11:54;100573.47;;;0.94;100.00
50550;BME280;36505;52.512;13.460;2022-11-24T08:14:19;100572.38;;;0.88;100.00
50550;BME280;36505;52.512;13.460;2022-11-24T08:16:44;100567.41;;;0.92;100.00
50550;BME280;36505;52.512;13.460;2022-11-24T08:19:10;100580.06;;;0.91;100.00
50550;BME280;36505;52.512;13.460;2022-11-24T08:21:36;100571.78;;;0.93;99.99
50550;BME280;36505;52.512;13.460;2022-11-24T08:24:02;100572.72;;;0.85;99.97
50550;BME280;36505;52.512;13.460;2022-11-24T08:26:27;100581.28;;;0.89;99.97
50550;BME280;36505;52.512;13.460;2022-11-24T08:28:55;100591.97;;;0.97;99.87
50550;BME280;36505;52.512;13.460;2022-11-24T08:31:21;100595.03;;;0.94;99.62
50550;BME280;36505;52.512;13.460;2022-11-24T08:33:46;100593.47;;;0.99;99.55
50550;BME280;36505;52.512;13.460;2022-11-24T08:36:16;100591.22;;;1.03;99.50
50550;BME280;36505;52.512;13.460;2022-11-24T08:38:42;100579.13;;;0.99;98.94
50550;BME280;36505;52.512;13.460;2022-11-24T08:41:13;100603.69;;;1.04;98.70
50550;BME280;36505;52.512;13.460;2022-11-24T08:43:39;100595.03;;;1.08;98.74
50550;BME280;36505;52.512;13.460;2022-11-24T08:46:10;100580.06;;;1.06;98.39
50550;BME280;36505;52.512;13.460;2022-11-24T08:48:36;100591.59;;;1.14;98.04
50550;BME280;36505;52.512;13.460;2022-11-24T08:51:07;100594.94;;;1.16;97.99
50550;BME280;36505;52.512;13.460;2022-11-24T08:53:33;100597.19;;;1.13;97.78
50550;BME280;36505;52.512;13.460;2022-11-24T08:55:59;100598.00;;;1.13;97.80
50550;BME280;36505;52.512;13.460;2022-11-24T08:58:25;100596.69;;;1.24;97.96
50550;BME280;36505;52.512;13.460;2022-11-24T09:00:50;100600.78;;;1.35;97.56
50550;BME280;36505;52.512;13.460;2022-11-24T09:03:16;100601.16;;;1.32;97.08
50550;BME280;36505;52.512;13.460;2022-11-24T09:05:41;100605.34;;;1.34;97.40
50550;BME280;36505;52.512;13.460;2022-11-24T09:08:07;100603.66;;;1.33;97.52
50550;BME280;36505;52.512;13.460;2022-11-24T09:10:32;100602.75;;;1.26;97.76
50550;BME280;36505;52.512;13.460;2022-11-24T09:12:57;100605.81;;;1.23;97.83
50550;BME280;36505;52.512;13.460;2022-11-24T09:15:23;100613.81;;;1.16;98.31
50550;BME280;36505;52.512;13.460;2022-11-24T09:17:48;100616.13;;;1.19;98.30
50550;BME280;36505;52.512;13.460;2022-11-24T09:20:14;100620.34;;;1.22;98.05
50550;BME280;36505;52.512;13.460;2022-11-24T09:22:39;100622.09;;;1.30;98.11
50550;BME280;36505;52.512;13.460;2022-11-24T09:25:06;100616.06;;;1.28;98.29
50550;BME280;36505;52.512;13.460;2022-11-24T09:27:31;100628.97;;;1.47;98.43
50550;BME280;36505;52.512;13.460;2022-11-24T09:29:57;100628.00;;;1.54;98.39
50550;BME280;36505;52.512;13.460;2022-11-24T09:32:22;100627.19;;;1.54;97.52
50550;BME280;36505;52.512;13.460;2022-11-24T09:34:51;100625.66;;;1.66;97.43
50550;BME280;36505;52.512;13.460;2022-11-24T09:37:17;100630.59;;;1.77;97.26
50550;BME280;36505;52.512;13.460;2022-11-24T09:39:45;100637.53;;;1.86;96.10
50550;BME280;36505;52.512;13.460;2022-11-24T09:45:16;100630.59;;;1.98;95.81
50550;BME280;36505;52.512;13.460;2022-11-24T09:50:29;100633.72;;;2.17;94.68
50550;BME280;36505;52.512;13.460;2022-11-24T09:52:57;100634.97;;;2.21;94.92
50550;BME280;36505;52.512;13.460;2022-11-24T09:55:38;100632.94;;;2.23;94.21
50550;BME280;36505;52.512;13.460;2022-11-24T09:58:46;100647.16;;;2.31;93.70
50550;BME280;36505;52.512;13.460;2022-11-24T10:01:29;100653.25;;;2.40;93.73
50550;BME280;36505;52.512;13.460;2022-11-24T10:03:55;100653.53;;;2.45;92.96
50550;BME280;36505;52.512;13.460;2022-11-24T10:26:48;100657.09;;;3.36;88.84
50550;BME280;36505;52.512;13.460;2022-11-24T10:31:44;100658.44;;;3.53;88.32
50550;BME280;36505;52.512;13.460;2022-11-24T10:34:20;100665.56;;;3.61;86.58
50550;BME280;36505;52.512;13.460;2022-11-24T10:37:25;100669.38;;;3.73;86.84
50550;BME280;36505;52.512;13.460;2022-11-24T10:40:02;100660.28;;;3.93;85.85
50550;BME280;36505;52.512;13.460;2022-11-24T10:42:32;100661.16;;;4.07;85.81
50550;BME280;36505;52.512;13.460;2022-11-24T10:45:20;100650.75;;;4.24;84.87
50550;BME280;36505;52.512;13.460;2022-11-24T10:47:49;100655.41;;;4.36;84.67
50550;BME280;36505;52.512;13.460;2022-11-24T10:50:25;100658.53;;;4.40;84.27
50550;BME280;36505;52.512;13.460;2022-11-24T10:58:22;100647.28;;;4.36;84.34
50550;BME280;36505;52.512;13.460;2022-11-24T11:00:48;100651.63;;;4.37;83.98
50550;BME280;36505;52.512;13.460;2022-11-24T11:03:24;100654.94;;;4.26;83.29
50550;BME280;36505;52.512;13.460;2022-11-24T11:05:56;100655.34;;;4.23;83.45
50550;BME280;36505;52.512;13.460;2022-11-24T11:08:32;100653.91;;;4.27;84.00
50550;BME280;36505;52.512;13.460;2022-11-24T11:18:52;100677.94;;;4.50;83.76
50550;BME280;36505;52.512;13.460;2022-11-24T11:21:34;100672.31;;;4.58;84.10
50550;BME280;36505;52.512;13.460;2022-11-24T11:24:03;100670.22;;;4.67;84.04
50550;BME280;36505;52.512;13.460;2022-11-24T11:26:34;100670.84;;;4.56;83.52
50550;BME280;36505;52.512;13.460;2022-11-24T11:31:36;100657.50;;;4.61;83.66
50550;BME280;36505;52.512;13.460;2022-11-24T11:36:38;100638.09;;;4.57;83.50
50550;BME280;36505;52.512;13.460;2022-11-24T11:39:05;100656.66;;;4.73;83.27
50550;BME280;36505;52.512;13.460;2022-11-24T11:41:38;100653.56;;;4.70;83.08
50550;BME280;36505;52.512;13.460;2022-11-24T11:44:26;100659.19;;;4.62;83.63
50550;BME280;36505;52.512;13.460;2022-11-24T11:46:57;100644.56;;;4.63;84.19
50550;BME280;36505;52.512;13.460;2022-11-24T11:49:23;100660.00;;;4.56;83.85
50550;BME280;36505;52.512;13.460;2022-11-24T11:55:13;100663.97;;;4.60;84.45
50550;BME280;36505;52.512;13.460;2022-11-24T12:00:19;100645.41;;;4.63;84.22
50550;BME280;36505;52.512;13.460;2022-11-24T12:05:57;100666.06;;;4.78;84.58
50550;BME280;36505;52.512;13.460;2022-11-24T12:08:52;100658.34;;;4.74;84.15
50550;BME280;36505;52.512;13.460;2022-11-24T12:11:41;100663.56;;;4.76;83.39
50550;BME280;36505;52.512;13.460;2022-11-24T12:14:35;100655.19;;;4.71;84.01
50550;BME280;36505;52.512;13.460;2022-11-24T12:20:13;100652.91;;;4.81;84.45
50550;BME280;36505;52.512;13.460;2022-11-24T12:26:03;100655.44;;;4.69;84.67
50550;BME280;36505;52.512;13.460;2022-11-24T12:36:31;100653.75;;;4.88;85.11
50550;BME280;36505;52.512;13.460;2022-11-24T12:39:05;100660.41;;;4.92;84.71
50550;BME280;36505;52.512;13.460;2022-11-24T12:44:29;100660.00;;;5.02;84.84
50550;BME280;36505;52.512;13.460;2022-11-24T12:47:12;100664.41;;;4.96;84.68
50550;BME280;36505;52.512;13.460;2022-11-24T12:54:42;100673.75;;;5.07;84.83
50550;BME280;36505;52.512;13.460;2022-11-24T12:57:21;100672.94;;;5.13;84.74
50550;BME280;36505;52.512;13.460;2022-11-24T13:00:03;100682.13;;;5.19;84.49
50550;BME280;36505;52.512;13.460;2022-11-24T13:05:32;100690.03;;;5.13;84.08
50550;BME280;36505;52.512;13.460;2022-11-24T13:08:04;100680.47;;;5.11;84.46
50550;BME280;36505;52.512;13.460;2022-11-24T13:10:33;100684.00;;;5.11;84.45
50550;BME280;36505;52.512;13.460;2022-11-24T13:13:09;100684.63;;;5.13;85.07
50550;BME280;36505;52.512;13.460;2022-11-24T13:18:41;100689.00;;;5.21;84.73
50550;BME280;36505;52.512;13.460;2022-11-24T13:29:34;100690.69;;;5.15;84.56
50550;BME280;36505;52.512;13.460;2022-11-24T13:42:13;100710.94;;;5.00;85.28
50550;BME280;36505;52.512;13.460;2022-11-24T13:45:07;100714.28;;;4.95;85.45
50550;BME280;36505;52.512;13.460;2022-11-24T13:49:57;100718.47;;;4.91;85.81
50550;BME280;36505;52.512;13.460;2022-11-24T13:55:02;100714.47;;;4.87;86.12
50550;BME280;36505;52.512;13.460;2022-11-24T13:57:37;100720.53;;;4.83;86.53
50550;BME280;36505;52.512;13.460;2022-11-24T14:00:18;100730.13;;;4.78;86.63
50550;BME280;36505;52.512;13.460;2022-11-24T14:02:44;100730.34;;;4.77;86.17
50550;BME280;36505;52.512;13.460;2022-11-24T14:05:17;100725.75;;;4.84;86.00
50550;BME280;36505;52.512;13.460;2022-11-24T14:07:44;100742.44;;;4.74;86.62
50550;BME280;36505;52.512;13.460;2022-11-24T14:10:20;100740.97;;;4.72;86.96
50550;BME280;36505;52.512;13.460;2022-11-24T14:15:42;100749.72;;;4.74;87.44
50550;BME280;36505;52.512;13.460;2022-11-24T14:18:20;100760.78;;;4.72;87.21
50550;BME280;36505;52.512;13.460;2022-11-24T14:20:46;100756.41;;;4.71;87.47
50550;BME280;36505;52.512;13.460;2022-11-24T14:23:12;100771.00;;;4.64;87.74
50550;BME280;36505;52.512;13.460;2022-11-24T14:25:37;100776.84;;;4.67;87.73
50550;BME280;36505;52.512;13.460;2022-11-24T14:28:24;100776.84;;;4.67;87.78
50550;BME280;36505;52.512;13.460;2022-11-24T14:31:05;100776.84;;;4.67;87.42
50550;BME280;36505;52.512;13.460;2022-11-24T14:33:31;100784.34;;;4.65;87.50
50550;BME280;36505;52.512;13.460;2022-11-24T14:35:56;100780.59;;;4.60;87.85
50550;BME280;36505;52.512;13.460;2022-11-24T14:38:22;100777.22;;;4.58;87.80
50550;BME280;36505;52.512;13.460;2022-11-24T14:40:49;100786.81;;;4.54;88.74
50550;BME280;36505;52.512;13.460;2022-11-24T14:45:50;100791.59;;;4.52;88.60
50550;BME280;36505;52.512;13.460;2022-11-24T14:48:29;100784.72;;;4.49;88.88